sensor_id;sensor_type;location;lat;lon;timestamp;P1;durP1;ratioP1;P2;durP2;ratioP2
13568;SDS011;6856;51.460;7.158;2022-11-21T00:10:57;11.20;;;9.50;;
13568;SDS011;6856;51.460;7.158;2022-11-21T00:14:05;9.53;;;8.53;;
13568;SDS011;6856;51.460;7.158;2022-11-21T00:16:56;11.07;;;8.80;;
13568;SDS011;6856;51.460;7.158;2022-11-21T00:19:56;9.87;;;8.57;;
13568;SDS011;6856;51.460;7.158;2022-11-21T00:23:09;10.23;;;8.47;;
13568;SDS011;6856;51.460;7.158;2022-11-21T00:26:03;9.97;;;8.73;;
13568;SDS011;6856;51.460;7.158;2022-11-21T00:29:09;10.87;;;9.03;;
13568;SDS011;6856;51.460;7.158;2022-11-21T00:32:15;12.13;;;10.03;;
13568;SDS011;6856;51.460;7.158;2022-11-21T00:35:16;10.13;;;8.00;;
13568;SDS011;6856;51.460;7.158;2022-11-21T00:38:04;10.57;;;8.87;;
13568;SDS011;6856;51.460;7.158;2022-11-21T00:41:09;11.07;;;8.73;;
13568;SDS011;6856;51.460;7.158;2022-11-21T00:44:40;9.80;;;8.70;;
13568;SDS011;6856;51.460;7.158;2022-11-21T00:50:22;11.73;;;10.17;;
13568;SDS011;6856;51.460;7.158;2022-11-21T00:53:08;12.70;;;10.70;;
13568;SDS011;6856;51.460;7.158;2022-11-21T00:56:06;11.30;;;9.60;;
13568;SDS011;6856;51.460;7.158;2022-11-21T00:58:47;12.93;;;10.57;;
13568;SDS011;6856;51.460;7.158;2022-11-21T01:01:28;13.03;;;11.20;;
13568;SDS011;6856;51.460;7.158;2022-11-21T01:04:10;13.33;;;11.37;;
13568;SDS011;6856;51.460;7.158;2022-11-21T01:07:16;12.50;;;11.07;;
13568;SDS011;6856;51.460;7.158;2022-11-21T01:10:03;13.90;;;12.07;;
13568;SDS011;6856;51.460;7.158;2022-11-21T01:12:43;13.43;;;10.97;;
13568;SDS011;6856;51.460;7.158;2022-11-21T01:15:19;14.30;;;11.67;;
13568;SDS011;6856;51.460;7.158;2022-11-21T01:18:28;11.83;;;9.97;;
13568;SDS011;6856;51.460;7.158;2022-11-21T01:21:19;13.47;;;11.30;;
13568;SDS011;6856;51.460;7.158;2022-11-21T01:24:02;13.30;;;11.23;;
13568;SDS011;6856;51.460;7.158;2022-11-21T01:30:04;11.50;;;9.20;;
13568;SDS011;6856;51.460;7.158;2022-11-21T01:33:01;12.60;;;9.97;;
13568;SDS011;6856;51.460;7.158;2022-11-21T01:36:04;11.37;;;10.13;;
13568;SDS011;6856;51.460;7.158;2022-11-21T01:38:56;11.13;;;9.80;;
13568;SDS011;6856;51.460;7.158;2022-11-21T01:41:47;11.83;;;9.90;;
13568;SDS011;6856;51.460;7.158;2022-11-21T01:44:26;10.83;;;9.00;;
13568;SDS011;6856;51.460;7.158;2022-11-21T01:47:46;11.90;;;9.90;;
13568;SDS011;6856;51.460;7.158;2022-11-21T01:50:26;11.37;;;9.13;;
13568;SDS011;6856;51.460;7.158;2022-11-21T01:53:16;11.63;;;10.17;;
13568;SDS011;6856;51.460;7.158;2022-11-21T01:56:10;11.97;;;9.20;;
13568;SDS011;6856;51.460;7.158;2022-11-21T01:58:48;11.13;;;9.53;;
13568;SDS011;6856;51.460;7.158;2022-11-21T02:01:40;13.93;;;10.50;;
13568;SDS011;6856;51.460;7.158;2022-11-21T02:04:33;15.30;;;12.10;;
13568;SDS011;6856;51.460;7.158;2022-11-21T02:10:58;14.50;;;10.73;;
13568;SDS011;6856;51.460;7.158;2022-11-21T02:13:44;13.00;;;10.70;;
13568;SDS011;6856;51.460;7.158;2022-11-21T02:16:43;14.87;;;11.70;;
13568;SDS011;6856;51.460;7.158;2022-11-21T02:19:42;15.77;;;12.97;;
13568;SDS011;6856;51.460;7.158;2022-11-21T02:22:35;18.13;;;13.40;;
13568;SDS011;6856;51.460;7.158;2022-11-21T02:25:42;16.50;;;12.07;;
13568;SDS011;6856;51.460;7.158;2022-11-21T02:28:31;17.03;;;12.77;;
13568;SDS011;6856;51.460;7.158;2022-11-21T02:31:12;16.50;;;12.47;;
13568;SDS011;6856;51.460;7.158;2022-11-21T02:33:51;15.20;;;12.00;;
13568;SDS011;6856;51.460;7.158;2022-11-21T02:37:04;16.70;;;12.93;;
13568;SDS011;6856;51.460;7.158;2022-11-21T02:39:46;17.57;;;14.13;;
13568;SDS011;6856;51.460;7.158;2022-11-21T02:42:29;17.13;;;13.87;;
13568;SDS011;6856;51.460;7.158;2022-11-21T02:46:09;16.27;;;12.93;;
13568;SDS011;6856;51.460;7.158;2022-11-21T02:48:58;18.07;;;13.87;;
13568;SDS011;6856;51.460;7.158;2022-11-21T02:51:58;17.23;;;13.67;;
13568;SDS011;6856;51.460;7.158;2022-11-21T02:54:56;17.77;;;12.90;;
13568;SDS011;6856;51.460;7.158;2022-11-21T03:01:19;15.87;;;12.33;;
13568;SDS011;6856;51.460;7.158;2022-11-21T03:04:30;16.30;;;12.10;;
13568;SDS011;6856;51.460;7.158;2022-11-21T03:07:15;16.30;;;12.03;;
13568;SDS011;6856;51.460;7.158;2022-11-21T03:10:23;16.87;;;12.60;;
13568;SDS011;6856;51.460;7.158;2022-11-21T03:16:39;18.50;;;13.57;;
13568;SDS011;6856;51.460;7.158;2022-11-21T03:19:20;16.80;;;13.33;;
13568;SDS011;6856;51.460;7.158;2022-11-21T03:22:12;16.63;;;13.00;;
13568;SDS011;6856;51.460;7.158;2022-11-21T03:28:16;17.90;;;13.10;;
13568;SDS011;6856;51.460;7.158;2022-11-21T03:31:38;16.57;;;12.30;;
13568;SDS011;6856;51.460;7.158;2022-11-21T03:34:17;17.53;;;13.57;;
13568;SDS011;6856;51.460;7.158;2022-11-21T03:37:18;17.83;;;13.27;;
13568;SDS011;6856;51.460;7.158;2022-11-21T03:40:02;16.97;;;13.43;;
13568;SDS011;6856;51.460;7.158;2022-11-21T03:42:50;15.40;;;12.67;;
13568;SDS011;6856;51.460;7.158;2022-11-21T03:45:36;15.20;;;11.97;;
13568;SDS011;6856;51.460;7.158;2022-11-21T03:54:26;15.10;;;12.10;;
13568;SDS011;6856;51.460;7.158;2022-11-21T03:57:09;17.90;;;13.13;;
13568;SDS011;6856;51.460;7.158;2022-11-21T03:59:48;17.17;;;12.50;;
13568;SDS011;6856;51.460;7.158;2022-11-21T04:06:11;16.73;;;12.80;;
13568;SDS011;6856;51.460;7.158;2022-11-21T04:08:56;17.77;;;13.53;;
13568;SDS011;6856;51.460;7.158;2022-11-21T04:12:23;14.23;;;12.30;;
13568;SDS011;6856;51.460;7.158;2022-11-21T04:15:18;18.60;;;13.23;;
13568;SDS011;6856;51.460;7.158;2022-11-21T04:21:14;16.97;;;13.37;;
13568;SDS011;6856;51.460;7.158;2022-11-21T04:24:08;18.03;;;13.87;;
13568;SDS011;6856;51.460;7.158;2022-11-21T04:26:52;17.47;;;12.87;;
13568;SDS011;6856;51.460;7.158;2022-11-21T04:29:47;19.50;;;14.53;;
13568;SDS011;6856;51.460;7.158;2022-11-21T04:32:49;19.87;;;13.60;;
13568;SDS011;6856;51.460;7.158;2022-11-21T04:35:51;15.47;;;12.37;;
13568;SDS011;6856;51.460;7.158;2022-11-21T04:38:46;19.23;;;14.90;;
13568;SDS011;6856;51.460;7.158;2022-11-21T04:41:29;22.27;;;16.40;;
13568;SDS011;6856;51.460;7.158;2022-11-21T04:44:08;20.70;;;15.70;;
13568;SDS011;6856;51.460;7.158;2022-11-21T04:46:47;20.40;;;14.93;;
13568;SDS011;6856;51.460;7.158;2022-11-21T04:49:29;25.30;;;16.90;;
13568;SDS011;6856;51.460;7.158;2022-11-21T04:52:15;25.37;;;16.30;;
13568;SDS011;6856;51.460;7.158;2022-11-21T04:55:00;21.87;;;15.57;;
13568;SDS011;6856;51.460;7.158;2022-11-21T04:57:37;22.13;;;16.03;;
13568;SDS011;6856;51.460;7.158;2022-11-21T05:00:20;20.57;;;15.03;;
13568;SDS011;6856;51.460;7.158;2022-11-21T05:03:07;18.40;;;13.30;;
13568;SDS011;6856;51.460;7.158;2022-11-21T05:05:52;16.97;;;12.43;;
13568;SDS011;6856;51.460;7.158;2022-11-21T05:08:42;17.93;;;12.90;;
13568;SDS011;6856;51.460;7.158;2022-11-21T05:11:34;17.67;;;13.13;;
13568;SDS011;6856;51.460;7.158;2022-11-21T05:14:45;17.47;;;13.13;;
13568;SDS011;6856;51.460;7.158;2022-11-21T05:17:26;18.13;;;13.57;;
13568;SDS011;6856;51.460;7.158;2022-11-21T05:23:37;15.07;;;11.90;;
13568;SDS011;6856;51.460;7.158;2022-11-21T05:30:00;18.27;;;13.63;;
13568;SDS011;6856;51.460;7.158;2022-11-21T05:32:49;18.80;;;14.20;;
13568;SDS011;6856;51.460;7.158;2022-11-21T05:35:29;20.80;;;15.23;;
13568;SDS011;6856;51.460;7.158;2022-11-21T05:38:14;22.40;;;15.43;;
13568;SDS011;6856;51.460;7.158;2022-11-21T05:41:08;20.60;;;14.80;;
13568;SDS011;6856;51.460;7.158;2022-11-21T05:43:48;21.77;;;15.60;;
13568;SDS011;6856;51.460;7.158;2022-11-21T05:46:39;22.23;;;15.60;;
13568;SDS011;6856;51.460;7.158;2022-11-21T05:49:33;21.83;;;15.77;;
13568;SDS011;6856;51.460;7.158;2022-11-21T05:52:20;22.47;;;15.50;;
13568;SDS011;6856;51.460;7.158;2022-11-21T05:54:59;19.50;;;14.53;;
13568;SDS011;6856;51.460;7.158;2022-11-21T05:57:34;22.90;;;16.87;;
13568;SDS011;6856;51.460;7.158;2022-11-21T06:03:30;21.70;;;15.43;;
13568;SDS011;6856;51.460;7.158;2022-11-21T06:06:13;20.43;;;14.43;;
13568;SDS011;6856;51.460;7.158;2022-11-21T06:08:56;22.47;;;15.77;;
13568;SDS011;6856;51.460;7.158;2022-11-21T06:11:33;22.23;;;15.70;;
13568;SDS011;6856;51.460;7.158;2022-11-21T06:14:10;22.67;;;15.27;;
13568;SDS011;6856;51.460;7.158;2022-11-21T06:16:48;22.57;;;15.57;;
13568;SDS011;6856;51.460;7.158;2022-11-21T06:19:30;22.43;;;15.07;;
13568;SDS011;6856;51.460;7.158;2022-11-21T06:25:18;22.43;;;14.63;;
13568;SDS011;6856;51.460;7.158;2022-11-21T06:27:55;21.00;;;15.67;;
13568;SDS011;6856;51.460;7.158;2022-11-21T06:30:44;22.03;;;15.83;;
13568;SDS011;6856;51.460;7.158;2022-11-21T06:33:24;23.27;;;16.43;;
13568;SDS011;6856;51.460;7.158;2022-11-21T06:36:00;24.33;;;17.43;;
13568;SDS011;6856;51.460;7.158;2022-11-21T06:38:40;23.73;;;15.07;;
13568;SDS011;6856;51.460;7.158;2022-11-21T06:41:35;23.37;;;16.83;;
13568;SDS011;6856;51.460;7.158;2022-11-21T06:44:24;25.13;;;17.30;;
13568;SDS011;6856;51.460;7.158;2022-11-21T06:47:04;22.63;;;15.60;;
13568;SDS011;6856;51.460;7.158;2022-11-21T06:49:43;21.27;;;15.37;;
13568;SDS011;6856;51.460;7.158;2022-11-21T06:52:21;22.80;;;16.33;;
13568;SDS011;6856;51.460;7.158;2022-11-21T06:55:11;22.80;;;16.13;;
13568;SDS011;6856;51.460;7.158;2022-11-21T07:01:11;22.60;;;16.17;;
13568;SDS011;6856;51.460;7.158;2022-11-21T07:03:50;21.73;;;15.93;;
13568;SDS011;6856;51.460;7.158;2022-11-21T07:06:34;21.87;;;16.50;;
13568;SDS011;6856;51.460;7.158;2022-11-21T07:09:12;20.60;;;14.23;;
13568;SDS011;6856;51.460;7.158;2022-11-21T07:12:08;21.50;;;14.20;;
13568;SDS011;6856;51.460;7.158;2022-11-21T07:15:06;19.13;;;13.37;;
13568;SDS011;6856;51.460;7.158;2022-11-21T07:23:42;21.10;;;13.70;;
13568;SDS011;6856;51.460;7.158;2022-11-21T07:26:17;21.73;;;14.43;;
13568;SDS011;6856;51.460;7.158;2022-11-21T07:28:53;18.90;;;13.77;;
13568;SDS011;6856;51.460;7.158;2022-11-21T07:31:29;21.27;;;13.43;;
13568;SDS011;6856;51.460;7.158;2022-11-21T07:34:06;22.77;;;14.50;;
13568;SDS011;6856;51.460;7.158;2022-11-21T07:36:48;21.33;;;13.93;;
13568;SDS011;6856;51.460;7.158;2022-11-21T07:39:32;22.53;;;14.67;;
13568;SDS011;6856;51.460;7.158;2022-11-21T07:42:09;21.60;;;14.33;;
13568;SDS011;6856;51.460;7.158;2022-11-21T07:44:44;17.90;;;13.50;;
13568;SDS011;6856;51.460;7.158;2022-11-21T07:50:32;19.20;;;13.23;;
13568;SDS011;6856;51.460;7.158;2022-11-21T07:53:20;23.23;;;14.57;;
13568;SDS011;6856;51.460;7.158;2022-11-21T07:56:06;19.77;;;13.60;;
13568;SDS011;6856;51.460;7.158;2022-11-21T08:01:56;16.93;;;11.83;;
13568;SDS011;6856;51.460;7.158;2022-11-21T08:04:39;21.13;;;13.50;;
13568;SDS011;6856;51.460;7.158;2022-11-21T08:07:16;18.10;;;13.37;;
13568;SDS011;6856;51.460;7.158;2022-11-21T08:10:02;19.43;;;13.33;;
13568;SDS011;6856;51.460;7.158;2022-11-21T08:12:40;18.90;;;13.73;;
13568;SDS011;6856;51.460;7.158;2022-11-21T08:15:23;18.00;;;12.57;;
13568;SDS011;6856;51.460;7.158;2022-11-21T08:18:19;18.67;;;13.57;;
13568;SDS011;6856;51.460;7.158;2022-11-21T08:21:07;16.93;;;12.37;;
13568;SDS011;6856;51.460;7.158;2022-11-21T08:23:50;16.73;;;12.03;;
13568;SDS011;6856;51.460;7.158;2022-11-21T08:26:29;21.73;;;14.57;;
13568;SDS011;6856;51.460;7.158;2022-11-21T08:29:09;19.97;;;14.53;;
13568;SDS011;6856;51.460;7.158;2022-11-21T08:32:13;20.80;;;12.93;;
13568;SDS011;6856;51.460;7.158;2022-11-21T08:35:03;22.17;;;14.47;;
13568;SDS011;6856;51.460;7.158;2022-11-21T08:37:44;23.30;;;14.60;;
13568;SDS011;6856;51.460;7.158;2022-11-21T08:41:43;26.73;;;16.67;;
13568;SDS011;6856;51.460;7.158;2022-11-21T08:43:59;20.07;;;13.23;;
13568;SDS011;6856;51.460;7.158;2022-11-21T08:46:51;20.57;;;13.93;;
13568;SDS011;6856;51.460;7.158;2022-11-21T08:49:29;19.97;;;13.53;;
13568;SDS011;6856;51.460;7.158;2022-11-21T08:52:26;21.03;;;13.83;;
13568;SDS011;6856;51.460;7.158;2022-11-21T08:59:17;20.23;;;13.50;;
13568;SDS011;6856;51.460;7.158;2022-11-21T09:02:28;21.27;;;13.93;;
13568;SDS011;6856;51.460;7.158;2022-11-21T09:05:21;24.67;;;15.77;;
13568;SDS011;6856;51.460;7.158;2022-11-21T09:08:04;19.13;;;13.10;;
13568;SDS011;6856;51.460;7.158;2022-11-21T09:11:10;19.60;;;13.47;;
13568;SDS011;6856;51.460;7.158;2022-11-21T09:13:56;20.03;;;13.73;;
13568;SDS011;6856;51.460;7.158;2022-11-21T09:16:56;22.10;;;13.87;;
13568;SDS011;6856;51.460;7.158;2022-11-21T09:19:57;17.13;;;12.30;;
13568;SDS011;6856;51.460;7.158;2022-11-21T09:22:39;19.77;;;14.47;;
13568;SDS011;6856;51.460;7.158;2022-11-21T09:25:50;21.63;;;14.00;;
13568;SDS011;6856;51.460;7.158;2022-11-21T09:28:32;23.47;;;15.43;;
13568;SDS011;6856;51.460;7.158;2022-11-21T09:31:17;23.70;;;15.67;;
13568;SDS011;6856;51.460;7.158;2022-11-21T09:33:56;24.40;;;15.70;;
13568;SDS011;6856;51.460;7.158;2022-11-21T09:37:04;24.03;;;15.93;;
13568;SDS011;6856;51.460;7.158;2022-11-21T09:40:14;21.50;;;15.00;;
13568;SDS011;6856;51.460;7.158;2022-11-21T09:46:42;21.63;;;14.80;;
13568;SDS011;6856;51.460;7.158;2022-11-21T09:49:24;22.53;;;14.23;;
13568;SDS011;6856;51.460;7.158;2022-11-21T09:52:03;21.23;;;14.50;;
13568;SDS011;6856;51.460;7.158;2022-11-21T09:58:25;17.83;;;12.70;;
13568;SDS011;6856;51.460;7.158;2022-11-21T10:01:18;18.13;;;13.07;;
13568;SDS011;6856;51.460;7.158;2022-11-21T10:07:13;21.47;;;14.57;;
13568;SDS011;6856;51.460;7.158;2022-11-21T10:10:12;20.73;;;13.37;;
13568;SDS011;6856;51.460;7.158;2022-11-21T10:13:35;17.93;;;13.10;;
13568;SDS011;6856;51.460;7.158;2022-11-21T10:16:39;16.23;;;11.70;;
13568;SDS011;6856;51.460;7.158;2022-11-21T10:19:29;19.30;;;13.20;;
13568;SDS011;6856;51.460;7.158;2022-11-21T10:23:32;17.23;;;12.10;;
13568;SDS011;6856;51.460;7.158;2022-11-21T10:26:35;15.97;;;11.87;;
13568;SDS011;6856;51.460;7.158;2022-11-21T10:33:03;16.70;;;12.00;;
13568;SDS011;6856;51.460;7.158;2022-11-21T10:36:04;19.33;;;13.87;;
13568;SDS011;6856;51.460;7.158;2022-11-21T10:39:04;16.03;;;12.03;;
13568;SDS011;6856;51.460;7.158;2022-11-21T10:42:03;17.20;;;11.30;;
13568;SDS011;6856;51.460;7.158;2022-11-21T10:45:04;17.37;;;11.93;;
13568;SDS011;6856;51.460;7.158;2022-11-21T10:48:03;16.93;;;11.57;;
13568;SDS011;6856;51.460;7.158;2022-11-21T10:50:59;14.53;;;11.20;;
13568;SDS011;6856;51.460;7.158;2022-11-21T10:54:06;15.30;;;10.67;;
13568;SDS011;6856;51.460;7.158;2022-11-21T11:08:19;13.30;;;10.07;;
13568;SDS011;6856;51.460;7.158;2022-11-21T11:14:29;12.67;;;9.87;;
13568;SDS011;6856;51.460;7.158;2022-11-21T11:17:25;14.63;;;11.07;;
13568;SDS011;6856;51.460;7.158;2022-11-21T11:27:54;12.07;;;9.57;;
13568;SDS011;6856;51.460;7.158;2022-11-21T11:31:11;10.33;;;8.90;;
13568;SDS011;6856;51.460;7.158;2022-11-21T11:34:25;9.17;;;7.93;;
13568;SDS011;6856;51.460;7.158;2022-11-21T11:37:19;11.63;;;9.23;;
13568;SDS011;6856;51.460;7.158;2022-11-21T11:40:54;11.70;;;8.90;;
13568;SDS011;6856;51.460;7.158;2022-11-21T11:44:45;16.23;;;9.13;;
13568;SDS011;6856;51.460;7.158;2022-11-21T11:48:28;10.90;;;8.60;;
13568;SDS011;6856;51.460;7.158;2022-11-21T11:59:02;8.23;;;6.73;;
13568;SDS011;6856;51.460;7.158;2022-11-21T12:10:21;9.00;;;6.53;;
13568;SDS011;6856;51.460;7.158;2022-11-21T12:13:35;7.07;;;5.93;;
13568;SDS011;6856;51.460;7.158;2022-11-21T13:05:40;7.93;;;4.83;;
13568;SDS011;6856;51.460;7.158;2022-11-21T13:08:24;8.00;;;4.57;;
13568;SDS011;6856;51.460;7.158;2022-11-21T13:11:06;7.03;;;4.70;;
13568;SDS011;6856;51.460;7.158;2022-11-21T13:14:12;7.30;;;4.63;;
13568;SDS011;6856;51.460;7.158;2022-11-21T13:17:01;5.73;;;4.70;;
13568;SDS011;6856;51.460;7.158;2022-11-21T13:19:48;6.17;;;4.70;;
13568;SDS011;6856;51.460;7.158;2022-11-21T13:25:40;7.33;;;5.00;;
13568;SDS011;6856;51.460;7.158;2022-11-21T13:28:29;5.43;;;4.53;;
13568;SDS011;6856;51.460;7.158;2022-11-21T13:34:02;6.87;;;4.60;;
13568;SDS011;6856;51.460;7.158;2022-11-21T13:36:38;6.00;;;4.70;;
13568;SDS011;6856;51.460;7.158;2022-11-21T13:42:14;6.17;;;4.63;;
13568;SDS011;6856;51.460;7.158;2022-11-21T13:51:52;6.63;;;4.57;;
13568;SDS011;6856;51.460;7.158;2022-11-21T13:57:50;4.87;;;4.20;;
13568;SDS011;6856;51.460;7.158;2022-11-21T14:00:51;6.67;;;4.63;;
13568;SDS011;6856;51.460;7.158;2022-11-21T14:07:15;5.87;;;4.60;;
13568;SDS011;6856;51.460;7.158;2022-11-21T14:09:58;5.47;;;4.60;;
13568;SDS011;6856;51.460;7.158;2022-11-21T14:12:41;9.00;;;4.17;;
13568;SDS011;6856;51.460;7.158;2022-11-21T14:15:23;7.37;;;4.80;;
13568;SDS011;6856;51.460;7.158;2022-11-21T14:18:11;5.67;;;3.90;;
13568;SDS011;6856;51.460;7.158;2022-11-21T14:20:54;5.57;;;3.70;;
13568;SDS011;6856;51.460;7.158;2022-11-21T14:23:31;4.73;;;3.23;;
13568;SDS011;6856;51.460;7.158;2022-11-21T14:26:09;4.83;;;3.83;;
13568;SDS011;6856;51.460;7.158;2022-11-21T14:28:51;5.43;;;4.10;;
13568;SDS011;6856;51.460;7.158;2022-11-21T14:31:48;5.70;;;4.13;;
13568;SDS011;6856;51.460;7.158;2022-11-21T14:34:24;7.70;;;4.40;;
13568;SDS011;6856;51.460;7.158;2022-11-21T14:37:03;4.60;;;3.87;;
13568;SDS011;6856;51.460;7.158;2022-11-21T14:39:41;5.27;;;3.90;;
13568;SDS011;6856;51.460;7.158;2022-11-21T14:42:33;5.17;;;3.80;;
13568;SDS011;6856;51.460;7.158;2022-11-21T14:45:14;5.03;;;3.53;;
13568;SDS011;6856;51.460;7.158;2022-11-21T14:47:51;5.23;;;3.40;;
13568;SDS011;6856;51.460;7.158;2022-11-21T14:50:26;4.27;;;3.37;;
13568;SDS011;6856;51.460;7.158;2022-11-21T14:53:06;5.90;;;3.00;;
13568;SDS011;6856;51.460;7.158;2022-11-21T14:55:47;3.80;;;2.40;;
13568;SDS011;6856;51.460;7.158;2022-11-21T14:58:34;6.67;;;3.13;;
13568;SDS011;6856;51.460;7.158;2022-11-21T15:01:19;5.00;;;2.70;;
13568;SDS011;6856;51.460;7.158;2022-11-21T15:03:57;3.57;;;2.83;;
13568;SDS011;6856;51.460;7.158;2022-11-21T15:06:39;4.00;;;2.57;;
13568;SDS011;6856;51.460;7.158;2022-11-21T15:09:15;3.80;;;2.67;;
13568;SDS011;6856;51.460;7.158;2022-11-21T15:12:09;3.67;;;2.57;;
13568;SDS011;6856;51.460;7.158;2022-11-21T15:14:46;3.57;;;2.37;;
13568;SDS011;6856;51.460;7.158;2022-11-21T15:17:33;3.00;;;2.17;;
13568;SDS011;6856;51.460;7.158;2022-11-21T15:20:35;2.30;;;2.03;;
13568;SDS011;6856;51.460;7.158;2022-11-21T15:23:23;3.23;;;2.20;;
13568;SDS011;6856;51.460;7.158;2022-11-21T15:26:03;3.50;;;2.57;;
13568;SDS011;6856;51.460;7.158;2022-11-21T15:28:37;5.20;;;2.60;;
13568;SDS011;6856;51.460;7.158;2022-11-21T15:31:26;3.33;;;2.43;;
13568;SDS011;6856;51.460;7.158;2022-11-21T15:34:02;2.87;;;2.13;;
13568;SDS011;6856;51.460;7.158;2022-11-21T15:37:01;3.57;;;2.40;;
13568;SDS011;6856;51.460;7.158;2022-11-21T15:39:41;7.47;;;2.30;;
13568;SDS011;6856;51.460;7.158;2022-11-21T15:42:38;4.87;;;2.30;;
13568;SDS011;6856;51.460;7.158;2022-11-21T15:45:20;4.00;;;2.20;;
13568;SDS011;6856;51.460;7.158;2022-11-21T15:48:03;4.00;;;2.07;;
13568;SDS011;6856;51.460;7.158;2022-11-21T15:50:41;2.50;;;2.00;;
13568;SDS011;6856;51.460;7.158;2022-11-21T15:53:16;2.87;;;2.10;;
13568;SDS011;6856;51.460;7.158;2022-11-21T15:55:50;3.33;;;2.37;;
13568;SDS011;6856;51.460;7.158;2022-11-21T15:58:27;2.23;;;1.67;;
13568;SDS011;6856;51.460;7.158;2022-11-21T16:01:01;2.33;;;1.77;;
13568;SDS011;6856;51.460;7.158;2022-11-21T16:03:36;4.80;;;2.60;;
13568;SDS011;6856;51.460;7.158;2022-11-21T16:06:11;6.47;;;2.30;;
13568;SDS011;6856;51.460;7.158;2022-11-21T16:12:14;2.57;;;1.80;;
13568;SDS011;6856;51.460;7.158;2022-11-21T16:14:48;4.17;;;2.30;;
13568;SDS011;6856;51.460;7.158;2022-11-21T16:17:22;2.67;;;2.23;;
13568;SDS011;6856;51.460;7.158;2022-11-21T16:19:56;2.77;;;1.97;;
13568;SDS011;6856;51.460;7.158;2022-11-21T16:22:33;2.30;;;1.57;;
13568;SDS011;6856;51.460;7.158;2022-11-21T16:25:11;2.90;;;1.73;;
13568;SDS011;6856;51.460;7.158;2022-11-21T16:27:46;2.87;;;1.90;;
13568;SDS011;6856;51.460;7.158;2022-11-21T16:30:20;3.63;;;1.67;;
13568;SDS011;6856;51.460;7.158;2022-11-21T16:33:00;2.63;;;1.60;;
13568;SDS011;6856;51.460;7.158;2022-11-21T16:35:36;3.80;;;2.00;;
13568;SDS011;6856;51.460;7.158;2022-11-21T16:38:12;3.63;;;2.00;;
13568;SDS011;6856;51.460;7.158;2022-11-21T16:40:51;4.17;;;2.30;;
13568;SDS011;6856;51.460;7.158;2022-11-21T16:43:27;6.00;;;2.00;;
13568;SDS011;6856;51.460;7.158;2022-11-21T16:46:05;3.30;;;1.93;;
13568;SDS011;6856;51.460;7.158;2022-11-21T16:48:43;3.47;;;2.20;;
13568;SDS011;6856;51.460;7.158;2022-11-21T16:51:18;2.90;;;1.73;;
13568;SDS011;6856;51.460;7.158;2022-11-21T16:53:55;3.07;;;1.80;;
13568;SDS011;6856;51.460;7.158;2022-11-21T16:56:39;4.47;;;3.50;;
13568;SDS011;6856;51.460;7.158;2022-11-21T16:59:13;7.77;;;5.20;;
13568;SDS011;6856;51.460;7.158;2022-11-21T17:01:49;7.27;;;5.67;;
13568;SDS011;6856;51.460;7.158;2022-11-21T17:04:23;5.67;;;3.80;;
13568;SDS011;6856;51.460;7.158;2022-11-21T17:07:01;4.50;;;2.97;;
13568;SDS011;6856;51.460;7.158;2022-11-21T17:09:38;3.53;;;2.27;;
13568;SDS011;6856;51.460;7.158;2022-11-21T17:12:14;3.63;;;1.90;;
13568;SDS011;6856;51.460;7.158;2022-11-21T17:14:48;4.50;;;2.10;;
13568;SDS011;6856;51.460;7.158;2022-11-21T17:17:26;4.87;;;3.13;;
13568;SDS011;6856;51.460;7.158;2022-11-21T17:20:20;4.10;;;2.30;;
13568;SDS011;6856;51.460;7.158;2022-11-21T17:22:55;4.33;;;3.33;;
13568;SDS011;6856;51.460;7.158;2022-11-21T17:25:35;4.40;;;2.97;;
13568;SDS011;6856;51.460;7.158;2022-11-21T17:28:12;4.43;;;2.80;;
13568;SDS011;6856;51.460;7.158;2022-11-21T17:30:51;4.37;;;2.80;;
13568;SDS011;6856;51.460;7.158;2022-11-21T17:33:25;7.50;;;5.23;;
13568;SDS011;6856;51.460;7.158;2022-11-21T17:36:03;8.23;;;5.60;;
13568;SDS011;6856;51.460;7.158;2022-11-21T17:38:42;5.37;;;3.53;;
13568;SDS011;6856;51.460;7.158;2022-11-21T17:41:20;5.87;;;3.17;;
13568;SDS011;6856;51.460;7.158;2022-11-21T17:43:57;5.20;;;2.83;;
13568;SDS011;6856;51.460;7.158;2022-11-21T17:46:32;3.97;;;2.67;;
13568;SDS011;6856;51.460;7.158;2022-11-21T17:49:15;4.63;;;2.17;;
13568;SDS011;6856;51.460;7.158;2022-11-21T17:51:49;3.73;;;2.10;;
13568;SDS011;6856;51.460;7.158;2022-11-21T17:54:27;3.17;;;2.20;;
13568;SDS011;6856;51.460;7.158;2022-11-21T17:57:05;3.13;;;1.77;;
13568;SDS011;6856;51.460;7.158;2022-11-21T17:59:39;4.00;;;2.17;;
13568;SDS011;6856;51.460;7.158;2022-11-21T18:02:15;3.10;;;1.80;;
13568;SDS011;6856;51.460;7.158;2022-11-21T18:04:52;5.33;;;2.70;;
13568;SDS011;6856;51.460;7.158;2022-11-21T18:07:35;5.47;;;2.73;;
13568;SDS011;6856;51.460;7.158;2022-11-21T18:10:10;5.37;;;3.37;;
13568;SDS011;6856;51.460;7.158;2022-11-21T18:13:12;6.10;;;3.27;;
13568;SDS011;6856;51.460;7.158;2022-11-21T18:15:54;5.50;;;3.87;;
13568;SDS011;6856;51.460;7.158;2022-11-21T18:18:41;5.60;;;2.97;;
13568;SDS011;6856;51.460;7.158;2022-11-21T18:21:20;4.27;;;2.27;;
13568;SDS011;6856;51.460;7.158;2022-11-21T18:24:01;4.00;;;2.27;;
13568;SDS011;6856;51.460;7.158;2022-11-21T18:26:36;5.60;;;3.13;;
13568;SDS011;6856;51.460;7.158;2022-11-21T18:29:22;4.73;;;2.13;;
13568;SDS011;6856;51.460;7.158;2022-11-21T18:32:12;4.27;;;2.30;;
13568;SDS011;6856;51.460;7.158;2022-11-21T18:34:49;6.33;;;3.47;;
13568;SDS011;6856;51.460;7.158;2022-11-21T18:37:23;7.27;;;4.17;;
13568;SDS011;6856;51.460;7.158;2022-11-21T18:39:58;6.43;;;3.57;;
13568;SDS011;6856;51.460;7.158;2022-11-21T18:42:47;5.00;;;2.37;;
13568;SDS011;6856;51.460;7.158;2022-11-21T18:45:23;8.73;;;4.90;;
13568;SDS011;6856;51.460;7.158;2022-11-21T18:47:59;6.43;;;3.60;;
13568;SDS011;6856;51.460;7.158;2022-11-21T18:50:40;6.50;;;3.13;;
13568;SDS011;6856;51.460;7.158;2022-11-21T18:53:26;6.17;;;2.83;;
13568;SDS011;6856;51.460;7.158;2022-11-21T18:56:02;3.50;;;2.30;;
13568;SDS011;6856;51.460;7.158;2022-11-21T18:58:42;4.47;;;2.40;;
13568;SDS011;6856;51.460;7.158;2022-11-21T19:01:20;3.20;;;1.97;;
13568;SDS011;6856;51.460;7.158;2022-11-21T19:07:01;4.77;;;2.40;;
13568;SDS011;6856;51.460;7.158;2022-11-21T19:09:41;2.97;;;2.17;;
13568;SDS011;6856;51.460;7.158;2022-11-21T19:12:23;5.33;;;2.70;;
13568;SDS011;6856;51.460;7.158;2022-11-21T19:15:15;5.77;;;3.37;;
13568;SDS011;6856;51.460;7.158;2022-11-21T19:18:14;3.50;;;1.87;;
13568;SDS011;6856;51.460;7.158;2022-11-21T19:20:59;5.90;;;2.50;;
13568;SDS011;6856;51.460;7.158;2022-11-21T19:23:34;4.37;;;2.60;;
13568;SDS011;6856;51.460;7.158;2022-11-21T19:26:17;5.37;;;3.30;;
13568;SDS011;6856;51.460;7.158;2022-11-21T19:29:06;4.27;;;2.67;;
13568;SDS011;6856;51.460;7.158;2022-11-21T19:31:44;6.83;;;2.83;;
13568;SDS011;6856;51.460;7.158;2022-11-21T19:34:20;2.93;;;2.23;;
13568;SDS011;6856;51.460;7.158;2022-11-21T19:37:04;4.80;;;2.70;;
13568;SDS011;6856;51.460;7.158;2022-11-21T19:39:38;5.67;;;3.03;;
13568;SDS011;6856;51.460;7.158;2022-11-21T19:42:17;4.27;;;2.00;;
13568;SDS011;6856;51.460;7.158;2022-11-21T19:44:52;3.63;;;2.20;;
13568;SDS011;6856;51.460;7.158;2022-11-21T19:47:46;4.33;;;2.10;;
13568;SDS011;6856;51.460;7.158;2022-11-21T19:50:29;5.33;;;2.80;;
13568;SDS011;6856;51.460;7.158;2022-11-21T19:53:23;4.27;;;2.10;;
13568;SDS011;6856;51.460;7.158;2022-11-21T19:56:00;2.97;;;2.00;;
13568;SDS011;6856;51.460;7.158;2022-11-21T19:58:56;4.83;;;1.97;;
13568;SDS011;6856;51.460;7.158;2022-11-21T20:01:31;5.13;;;2.20;;
13568;SDS011;6856;51.460;7.158;2022-11-21T20:04:14;3.53;;;1.87;;
13568;SDS011;6856;51.460;7.158;2022-11-21T20:07:15;3.37;;;1.87;;
13568;SDS011;6856;51.460;7.158;2022-11-21T20:09:57;4.33;;;2.00;;
13568;SDS011;6856;51.460;7.158;2022-11-21T20:12:33;3.90;;;1.77;;
13568;SDS011;6856;51.460;7.158;2022-11-21T20:15:08;4.97;;;2.50;;